KGNC

Gaines County Airport

Seminole, Texas, USA
METAR KGNC 190915Z AUTO 13004KT 10SM CLR 18/17 A3003 RMK AO2 T01780171
Observed Flight Rules
Sep-19 @ 09:15 UTC (25 minutes ago) Visual Flight Rules
Wind Visibility Clouds
130° at 4 knots 10 miles
  • Clear skies
Temperatures Readings
Current 18°C / 64°F
Dewpoint 17°C / 63°F
Humidity 94%
Altimeter 30.03" Hg
Pressure 1017 hPa
Elevation 1010
METAR KGNC 190915Z AUTO 13004KT 10SM CLR 18/17 A3003 RMK AO2 T01780171
Observed Flight Rules
Sep-19 @ 09:15 UTC
(25 minutes ago)
VFR
Wind Visibility
130° at 4 knots 10 miles
Clouds
  • Clear skies
Temperature Dewpoint
18°C / 64°F 17°C / 63°F
Humidity Altimeter Pressure
94% 30.03" Hg 1017 hPa